Time;durP1;ratioP1;P1;durP2;ratioP2;P2;SDS_P1;SDS_P2;PMS_P1;PMS_P2;Temp;Humidity;BMP_temperature;BMP_pressure;BME280_temperature;BME280_humidity;BME280_pressure;Samples;Min_cycle;Max_cycle;Signal;HPM_P1;HPM_P2
2021/04/30 00:01:29;;;;;;;27.73;18.38;;;7.40;99.90;;;8.62;74.27;100005.94;6216332;23;20458;-81
2021/04/30 00:03:54;;;;;;;24.65;15.75;;;7.40;99.90;;;8.58;74.09;100009.81;6215131;23;20009;-80
2021/04/30 00:06:20;;;;;;;23.95;17.13;;;7.40;99.90;;;8.52;74.67;100000.94;6217055;23;20008;-79
2021/04/30 00:08:46;;;;;;;27.45;17.52;;;7.40;99.90;;;8.53;74.29;100005.34;6197697;23;20041;-80
2021/04/30 00:11:13;;;;;;;27.77;17.02;;;7.40;99.90;;;8.54;74.53;100009.72;6200763;23;20004;-81
2021/04/30 00:13:39;;;;;;;23.33;16.67;;;7.40;99.90;;;8.67;74.45;100010.44;6217016;23;20059;-81
2021/04/30 00:16:07;;;;;;;27.85;17.73;;;7.40;99.90;;;8.54;74.50;100006.16;6191201;23;20020;-82
2021/04/30 00:18:34;;;;;;;30.10;17.77;;;7.40;99.90;;;8.59;74.69;100012.25;6218160;23;20469;-82
2021/04/30 00:21:03;;;;;;;25.95;18.38;;;7.40;99.90;;;8.66;74.22;100015.22;6217937;23;20571;-80
2021/04/30 00:23:32;;;;;;;27.45;18.10;;;7.40;99.90;;;8.68;74.14;100025.97;6215651;23;20005;-77
2021/04/30 00:26:04;;;;;;;24.98;17.65;;;7.40;99.90;;;8.69;74.45;100025.63;6189377;23;20013;-79
2021/04/30 00:28:30;;;;;;;27.08;17.17;;;7.40;99.90;;;8.64;74.87;100033.41;6215375;23;20004;-79
2021/04/30 00:30:59;;;;;;;27.60;17.13;;;7.40;99.90;;;8.73;74.66;100029.28;6189273;23;20008;-79
2021/04/30 00:33:28;;;;;;;26.40;16.77;;;7.40;99.90;;;8.71;74.63;100034.41;6215753;23;20004;-82
2021/04/30 00:35:55;;;;;;;28.58;17.98;;;7.40;99.90;;;8.72;74.64;100030.47;6189981;23;20036;-82
2021/04/30 00:38:21;;;;;;;28.15;17.98;;;7.40;99.90;;;8.67;75.11;100029.94;6216826;23;20312;-82
2021/04/30 00:40:48;;;;;;;30.52;18.42;;;7.40;99.90;;;8.71;75.08;100037.19;6217766;23;20028;-81
2021/04/30 00:43:15;;;;;;;27.33;18.08;;;7.50;99.90;;;8.72;75.15;100030.47;6218169;23;20016;-84
2021/04/30 00:45:41;;;;;;;26.70;17.48;;;7.50;99.90;;;8.51;75.75;100040.28;6219053;23;20032;-80
2021/04/30 00:48:11;;;;;;;33.03;20.80;;;7.40;99.90;;;8.62;76.23;100036.56;6215833;23;20001;-78
2021/04/30 00:50:38;;;;;;;27.92;19.67;;;7.40;99.90;;;8.55;76.91;100038.34;6214705;23;20000;-81
2021/04/30 00:53:06;;;;;;;35.40;20.50;;;7.40;99.90;;;8.57;76.98;100039.63;6188008;23;20012;-81
2021/04/30 00:55:32;;;;;;;34.47;21.98;;;7.30;99.90;;;8.49;78.21;100035.03;6215158;23;20453;-80
2021/04/30 00:58:03;;;;;;;36.63;23.70;;;7.30;99.90;;;8.48;78.27;100036.19;6215160;23;20000;-79
2021/04/30 01:00:36;;;;;;;39.83;24.60;;;7.30;99.90;;;8.36;79.16;100033.50;6213548;23;20005;-79
2021/04/30 01:03:08;;;;;;;39.28;24.05;;;7.30;99.90;;;8.49;79.11;100037.81;6215235;23;20047;-79
2021/04/30 01:05:38;;;;;;;43.33;25.33;;;7.20;99.90;;;8.42;79.59;100046.00;6215117;23;20004;-81
2021/04/30 01:08:06;;;;;;;36.20;25.08;;;7.20;99.90;;;8.36;80.33;100048.25;6188203;23;20200;-81
2021/04/30 01:10:34;;;;;;;39.78;25.77;;;7.10;99.90;;;8.37;80.71;100055.44;6215364;23;20028;-79
2021/04/30 01:13:02;;;;;;;49.50;26.38;;;7.10;99.90;;;8.23;81.54;100051.41;6188139;23;20028;-79
2021/04/30 01:15:28;;;;;;;42.75;26.67;;;7.10;99.90;;;8.22;82.75;100052.59;6215387;23;20013;-79
2021/04/30 01:17:54;;;;;;;40.28;25.73;;;7.00;99.90;;;8.16;82.99;100051.22;6190754;23;20004;-81
2021/04/30 01:20:22;;;;;;;45.70;28.60;;;7.00;99.90;;;8.17;82.56;100050.06;6215949;23;20004;-79
2021/04/30 01:22:54;;;;;;;43.67;27.45;;;6.90;99.90;;;8.09;82.84;100046.28;6215868;23;20067;-78
2021/04/30 01:25:37;;;;;;;44.80;25.33;;;6.90;99.90;;;8.02;83.05;100054.44;6217305;23;20004;-79
2021/04/30 01:28:08;;;;;;;37.13;24.38;;;6.90;99.90;;;8.16;82.45;100056.78;6215347;23;20385;-81
2021/04/30 01:30:39;;;;;;;38.92;23.63;;;6.90;99.90;;;8.17;82.71;100062.00;6187625;23;20009;-81
2021/04/30 01:33:29;;;;;;;38.22;23.35;;;6.90;99.90;;;8.06;82.75;100060.88;6188531;23;20351;-80
2021/04/30 01:35:55;;;;;;;37.30;22.83;;;6.80;99.90;;;8.05;82.80;100067.63;6189656;23;20031;-81
2021/04/30 01:38:21;;;;;;;34.67;21.98;;;6.80;99.90;;;8.05;82.39;100064.84;6189600;23;20015;-81
2021/04/30 01:40:46;;;;;;;35.42;22.58;;;6.80;99.90;;;7.93;83.09;100065.69;6213479;23;20032;-80
2021/04/30 01:43:22;;;;;;;37.17;22.10;;;6.80;99.90;;;8.06;82.68;100072.00;6188495;23;20013;-79
2021/04/30 01:46:05;;;;;;;31.55;21.15;;;6.70;99.90;;;7.93;82.88;100068.47;6188087;23;20015;-80
2021/04/30 01:48:35;;;;;;;34.40;22.42;;;6.70;99.90;;;7.92;82.50;100075.22;6187951;23;20016;-81
2021/04/30 01:51:05;;;;;;;33.88;23.95;;;6.70;99.90;;;7.94;82.53;100084.00;6187932;23;20001;-80
2021/04/30 01:53:36;;;;;;;38.50;23.50;;;6.70;99.90;;;7.93;83.21;100084.34;6214712;23;20000;-82
2021/04/30 01:56:13;;;;;;;43.78;26.73;;;6.70;99.90;;;7.89;83.72;100081.50;6214047;23;20007;-78
2021/04/30 01:58:42;;;;;;;38.67;26.45;;;6.60;99.90;;;7.87;83.65;100092.16;6211615;23;20012;-79
2021/04/30 02:01:10;;;;;;;41.45;26.75;;;6.70;99.90;;;7.80;83.90;100080.81;6214759;23;20435;-80
2021/04/30 02:03:36;;;;;;;44.65;27.65;;;6.60;99.90;;;7.93;83.85;100084.34;6215070;23;20431;-78
2021/04/30 02:06:03;;;;;;;46.35;28.30;;;6.60;99.90;;;7.85;83.74;100085.31;6214524;23;20036;-81
2021/04/30 02:08:29;;;;;;;50.40;30.85;;;6.60;99.90;;;7.81;84.34;100087.19;6214178;23;20036;-81
2021/04/30 02:10:56;;;;;;;47.20;29.20;;;6.60;99.90;;;7.95;83.07;100087.59;6188309;23;20011;-80
2021/04/30 02:13:22;;;;;;;52.85;30.20;;;6.60;99.90;;;7.90;83.80;100093.41;6188728;23;20020;-80
2021/04/30 02:15:54;;;;;;;46.72;31.27;;;6.60;99.90;;;7.87;83.73;100085.78;6213899;23;20012;-78
2021/04/30 02:18:22;;;;;;;44.80;29.92;;;6.60;99.90;;;7.87;84.30;100094.94;6215392;23;20008;-78
2021/04/30 02:20:48;;;;;;;49.17;31.95;;;6.60;99.90;;;7.88;84.20;100093.78;6187982;23;20012;-81
2021/04/30 02:23:15;;;;;;;53.90;33.25;;;6.60;99.90;;;7.78;84.56;100101.78;6219835;23;20071;-78
2021/04/30 02:25:43;;;;;;;57.17;31.98;;;6.60;99.90;;;7.82;84.03;100099.94;6202952;23;20012;-78
2021/04/30 02:28:10;;;;;;;51.78;31.75;;;6.60;99.90;;;7.96;83.51;100092.78;6235738;22;20004;-74
2021/04/30 02:30:41;;;;;;;55.25;33.20;;;6.60;99.90;;;7.80;83.91;100097.50;6240645;23;20012;-81
2021/04/30 02:33:10;;;;;;;60.97;33.67;;;6.60;99.90;;;7.86;83.87;100104.44;6213453;23;20012;-77
2021/04/30 02:35:49;;;;;;;57.53;32.40;;;6.60;99.90;;;7.86;84.26;100103.63;6190516;23;20024;-79
2021/04/30 02:38:19;;;;;;;61.55;34.85;;;6.60;99.90;;;7.83;83.95;100107.13;6215964;23;20079;-80
2021/04/30 02:40:51;;;;;;;57.88;34.60;;;6.70;99.90;;;7.89;83.85;100105.72;6214330;23;20016;-80
2021/04/30 02:43:21;;;;;;;57.13;35.10;;;6.60;99.90;;;8.00;83.21;100109.59;6188374;23;20008;-78
2021/04/30 02:45:53;;;;;;;56.58;32.20;;;6.70;99.90;;;8.03;83.82;100116.44;6214942;23;20016;-80
2021/04/30 02:48:31;;;;;;;57.80;34.15;;;6.70;99.90;;;8.04;83.42;100113.28;6215062;23;20049;-79
2021/04/30 02:51:01;;;;;;;59.63;34.08;;;6.70;99.90;;;7.89;84.37;100112.09;6187921;23;20005;-80
2021/04/30 02:53:28;;;;;;;68.20;35.80;;;6.70;99.90;;;7.78;84.82;100108.16;6187374;23;20012;-79
2021/04/30 02:55:54;;;;;;;59.38;34.70;;;6.70;99.90;;;7.79;85.61;100111.75;6188067;23;20154;-79
2021/04/30 02:58:20;;;;;;;59.47;34.45;;;6.70;99.90;;;7.89;84.72;100122.38;6215149;23;20004;-83
2021/04/30 03:00:48;;;;;;;62.65;36.92;;;6.70;99.90;;;7.97;84.05;100121.41;6217594;23;20194;-83
2021/04/30 03:03:14;;;;;;;60.53;35.03;;;6.70;99.90;;;8.04;84.07;100129.16;6189683;23;20088;-81
2021/04/30 03:05:41;;;;;;;58.85;33.47;;;6.70;99.90;;;8.01;83.99;100118.75;6189106;23;20013;-82
2021/04/30 03:08:08;;;;;;;59.17;34.30;;;6.70;99.90;;;8.03;84.16;100110.88;6192664;23;20009;-81
2021/04/30 03:10:34;;;;;;;59.83;34.28;;;6.70;99.90;;;8.00;84.17;100117.94;6196280;23;20015;-77
2021/04/30 03:13:00;;;;;;;68.90;36.92;;;6.70;99.90;;;7.97;84.01;100108.34;6224522;23;20020;-82
2021/04/30 03:15:27;;;;;;;65.15;35.70;;;6.70;99.90;;;7.99;84.00;100105.22;6220128;23;20008;-83
2021/04/30 03:17:54;;;;;;;68.60;38.38;;;6.70;99.90;;;8.03;83.80;100113.66;6220344;23;20013;-82
2021/04/30 03:20:22;;;;;;;68.28;37.47;;;6.70;99.90;;;8.11;83.71;100118.25;6189919;23;20107;-81
2021/04/30 03:22:49;;;;;;;70.78;39.38;;;6.70;99.90;;;8.04;84.12;100118.03;6214184;23;20001;-81
2021/04/30 03:25:17;;;;;;;70.85;37.00;;;6.70;99.90;;;8.09;84.22;100115.03;6214262;23;20055;-80
2021/04/30 03:27:44;;;;;;;65.78;36.05;;;6.70;99.90;;;8.03;83.91;100119.22;6203943;23;20324;-81
2021/04/30 03:30:12;;;;;;;71.80;36.97;;;6.70;99.90;;;8.06;84.11;100122.06;6213409;23;20001;-80
2021/04/30 03:32:39;;;;;;;71.72;38.35;;;6.80;99.90;;;8.10;83.96;100125.78;6214902;23;20004;-79
2021/04/30 03:35:07;;;;;;;67.43;38.28;;;6.80;99.90;;;7.99;84.58;100121.91;6213563;23;20357;-80
2021/04/30 03:37:33;;;;;;;76.13;39.50;;;6.70;99.90;;;7.85;85.35;100133.41;6214523;23;20012;-79
2021/04/30 03:39:59;;;;;;;77.65;40.05;;;6.70;99.90;;;8.02;84.66;100134.28;6213563;23;20008;-80
2021/04/30 03:42:26;;;;;;;74.10;36.33;;;6.70;99.90;;;8.06;84.43;100133.19;6215475;23;20016;-80
2021/04/30 03:44:52;;;;;;;73.40;39.17;;;6.70;99.90;;;8.03;84.76;100131.13;6214193;23;20008;-79
2021/04/30 03:47:17;;;;;;;78.95;39.13;;;6.70;99.90;;;8.15;83.80;100133.06;6214721;23;20012;-81
2021/04/30 03:49:43;;;;;;;72.45;39.00;;;6.80;99.90;;;8.13;84.12;100138.16;6213774;23;20012;-80
2021/04/30 03:52:10;;;;;;;71.78;38.65;;;6.80;99.90;;;8.10;83.93;100133.31;6215502;23;20032;-81
2021/04/30 03:54:36;;;;;;;70.93;38.70;;;6.80;99.90;;;8.14;84.22;100131.44;6217189;23;20001;-81
2021/04/30 03:57:04;;;;;;;70.93;37.60;;;6.80;99.90;;;8.18;84.04;100135.13;6216953;23;20070;-82
2021/04/30 03:59:29;;;;;;;81.53;39.83;;;6.80;99.90;;;8.04;84.62;100129.97;6215011;23;20070;-79
2021/04/30 04:01:55;;;;;;;67.53;38.97;;;6.80;99.90;;;8.11;84.15;100129.38;6217741;23;20339;-79
2021/04/30 04:04:21;;;;;;;75.78;39.10;;;6.80;99.90;;;8.14;84.32;100140.59;6217796;23;20023;-80
2021/04/30 04:06:50;;;;;;;80.22;38.67;;;6.80;99.90;;;8.15;84.15;100138.63;6215400;23;20147;-81
2021/04/30 04:09:16;;;;;;;73.68;38.10;;;6.80;99.90;;;8.08;84.72;100139.22;6220777;23;20008;-81
2021/04/30 04:11:44;;;;;;;81.55;38.42;;;6.70;99.90;;;8.16;84.45;100143.00;6216443;23;20083;-83
2021/04/30 04:14:10;;;;;;;74.32;38.75;;;6.80;99.90;;;8.15;84.42;100147.78;6218891;23;20423;-83
2021/04/30 04:16:36;;;;;;;74.28;37.50;;;6.80;99.90;;;8.13;84.51;100149.28;6219665;23;20013;-79
2021/04/30 04:19:02;;;;;;;73.63;35.22;;;6.80;99.90;;;8.12;84.25;100151.28;6218850;23;20012;-82
2021/04/30 04:21:29;;;;;;;75.05;35.22;;;6.80;99.90;;;8.02;84.41;100150.97;6243238;23;20082;-80
2021/04/30 04:23:55;;;;;;;63.10;34.20;;;6.70;99.90;;;8.09;83.92;100143.63;6218993;23;20032;-82
2021/04/30 04:26:21;;;;;;;70.30;33.20;;;6.80;99.90;;;7.90;84.50;100157.34;6222101;23;20070;-81
2021/04/30 04:28:47;;;;;;;64.53;33.60;;;6.70;99.90;;;8.06;83.68;100163.78;6195495;23;20016;-81
2021/04/30 04:31:18;;;;;;;67.80;33.65;;;6.70;99.90;;;8.05;84.25;100173.31;6220906;23;20012;-83
2021/04/30 04:33:43;;;;;;;63.45;33.65;;;6.70;99.90;;;8.01;84.19;100168.81;6218140;23;20001;-83
2021/04/30 04:36:09;;;;;;;68.28;32.30;;;6.70;99.90;;;7.81;84.90;100182.53;6218126;23;20074;-83
2021/04/30 04:38:35;;;;;;;60.70;32.17;;;6.70;99.90;;;7.80;84.58;100167.00;6215832;23;20020;-83
2021/04/30 04:41:01;;;;;;;59.38;30.35;;;6.70;99.90;;;7.85;84.07;100157.63;6226665;22;20012;-83
2021/04/30 04:43:27;;;;;;;65.18;32.38;;;6.60;99.90;;;7.88;84.45;100165.25;6245819;23;20040;-85
2021/04/30 04:45:53;;;;;;;62.63;31.90;;;6.60;99.90;;;7.88;84.39;100168.84;6248111;23;20004;-82
2021/04/30 04:48:19;;;;;;;72.55;31.23;;;6.60;99.90;;;7.87;84.43;100163.63;6261692;23;20196;-81
2021/04/30 04:50:49;;;;;;;73.00;34.75;;;6.60;99.90;;;7.73;84.83;100177.09;6271667;22;20039;-81
2021/04/30 04:53:15;;;;;;;73.13;33.72;;;6.60;99.90;;;7.79;85.09;100157.06;6260341;23;20019;-83
2021/04/30 04:55:41;;;;;;;71.95;33.88;;;6.60;99.90;;;7.86;85.04;100160.06;6252361;23;20008;-81
2021/04/30 04:58:07;;;;;;;71.53;34.85;;;6.60;99.90;;;7.94;84.29;100169.41;6277199;22;20008;-85
2021/04/30 05:00:33;;;;;;;72.25;33.97;;;6.60;99.90;;;8.02;83.83;100162.91;6253306;22;20031;-83
2021/04/30 05:02:59;;;;;;;70.63;34.13;;;6.70;99.90;;;8.06;84.17;100161.00;6251123;23;20340;-79
2021/04/30 05:05:27;;;;;;;69.53;36.10;;;6.60;99.90;;;8.04;84.46;100174.47;6252177;23;20008;-84
2021/04/30 05:07:53;;;;;;;78.18;34.92;;;6.70;99.90;;;8.00;84.35;100176.34;6252519;23;20009;-80
2021/04/30 05:10:22;;;;;;;74.85;34.72;;;6.70;99.90;;;7.89;84.86;100184.38;6250672;22;20004;-81
2021/04/30 05:12:48;;;;;;;74.22;36.35;;;6.70;99.90;;;7.85;84.75;100182.63;6252001;23;20015;-83
2021/04/30 05:15:16;;;;;;;80.53;35.63;;;6.70;99.90;;;7.96;84.56;100184.56;6250956;23;20008;-80
2021/04/30 05:17:43;;;;;;;69.15;33.35;;;6.70;99.90;;;8.00;84.53;100178.28;6246241;22;20008;-81
2021/04/30 05:20:14;;;;;;;80.00;35.38;;;6.70;99.90;;;7.78;85.22;100185.19;6245438;22;20008;-80
2021/04/30 05:22:44;;;;;;;80.28;34.83;;;6.70;99.90;;;7.89;85.25;100187.16;6246337;23;20066;-80
2021/04/30 05:25:12;;;;;;;75.00;34.80;;;6.70;99.90;;;7.96;85.13;100192.13;6246022;23;20434;-79
2021/04/30 05:27:42;;;;;;;84.10;37.67;;;6.70;99.90;;;7.96;84.71;100190.13;6248156;22;20010;-79
2021/04/30 05:30:13;;;;;;;81.38;35.88;;;6.70;99.90;;;8.03;84.71;100192.31;6245447;22;20047;-79
2021/04/30 05:32:39;;;;;;;75.53;38.35;;;6.70;99.90;;;8.01;84.73;100193.84;6245379;23;20142;-79
2021/04/30 05:35:08;;;;;;;76.70;38.60;;;6.70;99.90;;;8.01;85.15;100189.09;6245206;23;20031;-81
2021/04/30 05:37:34;;;;;;;90.28;39.63;;;6.70;99.90;;;8.03;85.25;100197.09;6245385;23;20015;-81
2021/04/30 05:40:00;;;;;;;87.30;38.75;;;6.70;99.90;;;8.06;84.75;100193.59;6248043;22;20441;-80
2021/04/30 05:42:30;;;;;;;82.57;39.05;;;6.70;99.90;;;7.99;85.17;100205.31;6245206;22;20039;-79
2021/04/30 05:44:56;;;;;;;91.55;41.67;;;6.70;99.90;;;8.07;85.13;100209.91;6247293;22;20576;-82
2021/04/30 05:47:31;;;;;;;96.00;42.63;;;6.80;99.90;;;7.97;85.46;100205.66;6247502;23;20008;-79
2021/04/30 05:49:57;;;;;;;96.00;41.60;;;6.80;99.90;;;8.04;85.04;100201.47;6247764;22;20000;-80
2021/04/30 05:52:24;;;;;;;88.10;40.33;;;6.80;99.90;;;8.12;85.05;100194.97;6245905;22;20035;-80
2021/04/30 05:54:50;;;;;;;94.07;41.28;;;6.80;99.90;;;8.11;84.78;100199.72;6247693;23;20004;-83
2021/04/30 05:57:17;;;;;;;92.68;41.75;;;6.80;99.90;;;8.18;84.93;100201.91;6248573;23;20424;-81
2021/04/30 05:59:44;;;;;;;91.85;41.63;;;6.80;99.90;;;8.11;85.44;100207.25;6246641;23;20008;-80
2021/04/30 06:02:11;;;;;;;95.35;42.83;;;6.80;99.90;;;8.17;85.15;100205.84;6247063;22;20035;-80
2021/04/30 06:04:37;;;;;;;91.28;40.42;;;6.80;99.90;;;8.01;85.84;100210.53;6246494;23;20016;-79
2021/04/30 06:07:05;;;;;;;90.03;41.83;;;6.90;99.90;;;8.14;85.50;100206.53;6246997;23;20013;-79
2021/04/30 06:09:31;;;;;;;96.13;45.67;;;6.90;99.90;;;8.18;85.20;100204.69;6248048;23;20015;-81
2021/04/30 06:12:03;;;;;;;102.35;42.08;;;6.90;99.90;;;8.14;85.66;100212.09;6246459;22;20351;-82
2021/04/30 06:14:33;;;;;;;100.78;42.97;;;6.90;99.90;;;8.16;85.93;100204.22;6247600;23;20004;-81
2021/04/30 06:17:01;;;;;;;102.97;42.05;;;6.90;99.90;;;8.16;85.62;100212.56;6246666;23;20036;-80
2021/04/30 06:19:28;;;;;;;93.30;42.45;;;6.90;99.90;;;8.32;85.05;100219.84;6272447;22;20433;-78
2021/04/30 06:21:55;;;;;;;86.22;40.85;;;6.90;99.90;;;8.36;85.06;100219.94;6246370;22;20118;-80
2021/04/30 06:24:21;;;;;;;86.78;41.75;;;7.00;99.90;;;8.41;84.95;100212.16;6247809;23;20015;-80
2021/04/30 06:26:47;;;;;;;92.25;41.35;;;7.00;99.90;;;8.52;84.60;100217.22;6272578;22;20012;-80
2021/04/30 06:29:14;;;;;;;79.40;37.80;;;7.10;99.90;;;8.52;84.96;100223.59;6272658;22;20004;-80
2021/04/30 06:31:40;;;;;;;84.47;39.28;;;7.10;99.90;;;8.54;84.55;100212.91;6246409;22;20012;-81
2021/04/30 06:34:07;;;;;;;86.22;38.75;;;7.10;99.90;;;8.52;84.10;100215.25;6247384;23;20004;-82
2021/04/30 06:36:36;;;;;;;84.93;39.97;;;7.20;99.90;;;8.49;84.15;100227.09;6247265;23;20123;-80
2021/04/30 06:39:05;;;;;;;78.93;35.80;;;7.20;99.90;;;8.28;84.94;100224.47;6247300;23;20339;-80
2021/04/30 06:41:32;;;;;;;86.32;38.25;;;7.10;99.90;;;8.10;85.91;100220.34;6246998;22;20008;-81
2021/04/30 06:43:59;;;;;;;80.07;37.22;;;7.00;99.90;;;8.15;85.93;100213.75;6246767;23;20444;-81
2021/04/30 06:46:27;;;;;;;81.40;36.42;;;7.10;99.90;;;8.39;84.75;100216.44;6246452;23;20015;-81
2021/04/30 06:48:57;;;;;;;80.85;36.70;;;7.10;99.90;;;8.18;85.85;100229.72;6248683;22;20038;-82
2021/04/30 06:51:24;;;;;;;88.63;39.33;;;7.10;99.90;;;8.13;86.60;100232.72;6250118;22;20000;-81
2021/04/30 06:53:53;;;;;;;81.10;36.47;;;7.10;99.90;;;8.27;86.40;100238.72;6246806;23;20008;-80
2021/04/30 06:56:19;;;;;;;80.22;36.95;;;7.10;99.90;;;8.45;85.11;100234.50;6247054;23;20008;-80
2021/04/30 06:58:45;;;;;;;87.10;38.15;;;7.10;99.90;;;8.47;84.43;100237.78;6271386;22;20015;-82
2021/04/30 07:01:13;;;;;;;92.22;37.50;;;7.20;99.90;;;8.53;84.72;100241.09;6246872;22;20049;-82
2021/04/30 07:03:46;;;;;;;79.78;36.47;;;7.20;99.90;;;8.52;84.60;100243.06;6246837;22;20012;-81
2021/04/30 07:06:20;;;;;;;77.55;35.25;;;7.20;99.90;;;8.60;84.81;100247.69;6266341;22;20011;-83
2021/04/30 07:08:50;;;;;;;78.07;36.90;;;7.20;99.90;;;8.61;83.95;100238.16;6260208;22;20020;-81
2021/04/30 07:11:18;;;;;;;86.88;38.13;;;7.30;99.90;;;8.58;84.39;100236.09;6247215;22;20075;-81
2021/04/30 07:13:46;;;;;;;80.97;35.38;;;7.30;99.90;;;8.67;83.76;100230.38;6245389;23;20421;-82
2021/04/30 07:16:13;;;;;;;84.88;36.22;;;7.40;99.90;;;8.66;84.18;100232.34;6245021;23;20085;-80
2021/04/30 07:18:39;;;;;;;89.93;37.58;;;7.30;99.90;;;8.71;83.95;100239.63;6244939;23;20087;-82
2021/04/30 07:21:05;;;;;;;77.18;36.17;;;7.40;99.90;;;8.86;83.44;100241.66;6244668;22;20004;-80
2021/04/30 07:23:33;;;;;;;86.55;35.63;;;7.40;99.90;;;8.79;83.23;100247.03;6248428;23;20008;-83
2021/04/30 07:26:04;;;;;;;78.95;37.65;;;7.50;99.90;;;8.78;83.29;100240.63;6248244;23;20012;-80
2021/04/30 07:28:31;;;;;;;86.97;34.40;;;7.40;99.90;;;8.67;83.70;100256.22;6245589;23;20111;-79
2021/04/30 07:30:59;;;;;;;81.07;38.08;;;7.40;99.90;;;8.85;83.42;100256.72;6246376;22;20027;-82
2021/04/30 07:33:25;;;;;;;80.32;35.25;;;7.40;99.90;;;8.93;82.94;100256.56;6246523;23;20019;-81
2021/04/30 07:35:51;;;;;;;78.63;34.38;;;7.50;99.90;;;8.97;82.79;100256.66;6247605;23;20011;-82
2021/04/30 07:38:17;;;;;;;86.85;36.00;;;7.50;99.90;;;9.02;82.15;100262.75;6247558;23;20437;-80
2021/04/30 07:40:43;;;;;;;76.50;34.35;;;7.50;99.90;;;9.12;81.89;100252.28;6246458;22;20066;-81
2021/04/30 07:43:15;;;;;;;87.30;37.42;;;7.50;99.90;;;9.02;82.79;100261.16;6221059;23;20030;-80
2021/04/30 07:45:45;;;;;;;85.25;36.17;;;7.60;99.90;;;9.09;82.42;100247.41;6248016;23;20445;-80
2021/04/30 07:48:12;;;;;;;73.90;33.85;;;7.60;99.90;;;9.16;81.89;100245.63;6220904;23;20008;-80
2021/04/30 07:50:39;;;;;;;81.97;34.35;;;7.70;99.90;;;9.16;81.53;100247.59;6221593;23;20359;-81
2021/04/30 07:53:17;;;;;;;81.38;34.45;;;7.80;99.90;;;9.22;81.31;100254.53;6222418;23;20363;-79
2021/04/30 07:55:43;;;;;;;86.88;35.10;;;7.80;99.90;;;9.13;81.33;100254.69;6250138;23;20536;-81
2021/04/30 07:58:10;;;;;;;76.65;33.10;;;7.80;99.90;;;9.24;81.16;100257.78;6223603;23;20545;-82
2021/04/30 08:00:36;;;;;;;74.43;33.85;;;7.80;99.90;;;9.30;81.05;100259.94;6223234;23;20396;-81
2021/04/30 08:03:04;;;;;;;78.43;34.17;;;7.80;99.90;;;9.33;80.87;100266.75;6223287;23;20004;-81
2021/04/30 08:05:30;;;;;;;80.22;33.25;;;7.80;99.90;;;9.33;81.15;100266.75;6223118;23;20422;-81
2021/04/30 08:08:04;;;;;;;82.70;34.78;;;7.80;99.90;;;9.30;80.89;100273.06;6223308;23;20016;-81
2021/04/30 08:10:32;;;;;;;73.20;31.85;;;7.80;99.90;;;9.35;81.16;100283.94;6222905;23;20015;-80
2021/04/30 08:12:59;;;;;;;82.88;34.33;;;7.80;99.90;;;9.42;80.87;100273.78;6223332;23;20503;-80
2021/04/30 08:15:26;;;;;;;87.07;35.65;;;7.90;99.90;;;9.41;80.76;100276.91;6249445;23;20326;-81
2021/04/30 08:17:52;;;;;;;86.50;34.22;;;7.90;99.90;;;9.39;80.90;100277.28;6249092;23;20106;-81
2021/04/30 08:20:18;;;;;;;78.65;33.70;;;8.00;99.90;;;9.48;80.68;100282.69;6221587;22;20000;-81
2021/04/30 08:22:44;;;;;;;80.60;35.47;;;8.00;99.90;;;9.43;80.35;100283.78;6222227;23;20330;-81
2021/04/30 08:25:14;;;;;;;85.93;36.15;;;8.00;99.90;;;9.41;80.09;100277.72;6222718;23;20008;-81
2021/04/30 08:27:39;;;;;;;85.43;35.00;;;7.90;99.90;;;9.33;80.71;100275.94;6222474;23;20008;-80
2021/04/30 08:30:07;;;;;;;89.72;34.83;;;7.90;99.90;;;9.42;80.87;100278.53;6248536;22;20008;-81
2021/04/30 08:32:33;;;;;;;81.43;35.75;;;8.00;99.90;;;9.50;79.82;100278.34;6222044;23;20000;-80
2021/04/30 08:35:00;;;;;;;76.47;34.38;;;8.00;99.90;;;9.48;79.42;100283.50;6222683;23;20004;-80
2021/04/30 08:37:28;;;;;;;75.38;34.03;;;8.00;99.90;;;9.44;80.35;100277.00;6250185;23;20032;-80
2021/04/30 08:39:57;;;;;;;75.00;32.60;;;8.00;99.90;;;9.51;80.01;100285.56;6223425;23;20018;-80
2021/04/30 08:42:26;;;;;;;73.35;30.50;;;8.20;99.90;;;9.75;79.88;100292.94;6239521;23;20012;-80
2021/04/30 08:44:53;;;;;;;76.88;33.35;;;8.20;99.90;;;9.77;79.31;100279.44;6246234;23;20015;-81
2021/04/30 08:47:31;;;;;;;79.13;33.13;;;8.20;99.90;;;9.85;77.91;100292.38;6246767;23;20352;-80
2021/04/30 08:49:58;;;;;;;73.05;32.75;;;8.40;99.90;;;9.80;78.19;100281.50;6247024;23;20054;-80
2021/04/30 08:52:26;;;;;;;79.70;32.75;;;8.40;99.90;;;9.89;78.05;100286.88;6247361;22;20004;-82
2021/04/30 08:54:59;;;;;;;79.10;33.95;;;8.40;99.90;;;9.87;77.60;100290.03;6248586;22;20083;-81
2021/04/30 08:57:27;;;;;;;71.30;32.40;;;8.40;99.90;;;9.96;77.77;100299.03;6246223;23;20019;-81
2021/04/30 09:00:00;;;;;;;72.93;33.20;;;8.50;99.90;;;10.01;77.72;100301.53;6246290;23;20023;-81
2021/04/30 09:02:38;;;;;;;69.75;30.30;;;8.40;99.90;;;10.09;77.61;100302.50;6246739;22;20357;-80
2021/04/30 09:05:12;;;;;;;72.40;30.98;;;8.50;99.90;;;9.99;77.59;100300.25;6248221;22;20012;-80
2021/04/30 09:07:46;;;;;;;67.80;30.85;;;8.50;99.90;;;10.04;77.48;100311.16;6246968;23;20015;-80
2021/04/30 09:10:19;;;;;;;64.25;30.30;;;8.50;99.90;;;10.05;77.48;100307.19;6274362;22;20028;-80
2021/04/30 09:13:23;;;;;;;67.82;32.83;;;8.60;99.90;;;10.12;76.89;100300.97;6265939;22;20000;-81
2021/04/30 09:16:13;;;;;;;66.10;29.35;;;8.60;99.90;;;10.13;76.73;100303.41;6270490;22;20015;-81
2021/04/30 09:18:39;;;;;;;70.35;30.48;;;8.60;99.90;;;10.24;76.45;100307.25;6257397;22;20016;-82
2021/04/30 09:21:12;;;;;;;64.88;30.45;;;8.70;99.90;;;10.20;77.18;100308.38;6271454;22;20004;-82
2021/04/30 09:24:07;;;;;;;69.93;29.05;;;8.70;99.90;;;10.35;76.44;100315.88;6259631;22;20078;-83
2021/04/30 09:26:44;;;;;;;59.45;28.98;;;8.80;99.90;;;10.20;76.39;100308.38;6260495;22;20380;-82
2021/04/30 09:29:12;;;;;;;63.25;30.15;;;8.70;99.90;;;10.30;76.65;100303.03;6245575;23;20470;-81
2021/04/30 09:31:42;;;;;;;65.72;30.67;;;8.80;99.90;;;10.33;76.58;100318.25;6246641;22;20011;-82
2021/04/30 09:34:27;;;;;;;62.88;30.73;;;8.90;99.90;;;10.54;75.74;100315.91;6246473;23;20048;-82
2021/04/30 09:37:14;;;;;;;70.90;31.23;;;9.00;99.90;;;10.76;74.95;100319.97;6246185;23;20008;-81
2021/04/30 09:40:19;;;;;;;65.10;30.98;;;9.10;99.90;;;10.76;74.83;100325.53;6246372;23;20012;-81
2021/04/30 09:42:46;;;;;;;61.00;30.30;;;9.20;99.90;;;10.82;74.43;100321.31;6228005;23;20012;-82
2021/04/30 09:45:15;;;;;;;67.38;30.27;;;9.30;99.90;;;10.92;73.97;100326.28;6247965;23;20015;-80
2021/04/30 09:47:44;;;;;;;64.93;30.15;;;9.40;99.90;;;10.67;75.01;100316.56;6245811;23;20000;-82
2021/04/30 09:50:28;;;;;;;63.35;29.30;;;9.30;99.90;;;10.95;73.77;100326.34;6246037;22;20005;-80
2021/04/30 09:53:09;;;;;;;62.55;28.83;;;9.50;99.90;;;10.77;74.84;100314.03;6247702;22;20476;-83
2021/04/30 09:55:53;;;;;;;58.25;27.75;;;9.40;99.90;;;11.22;73.75;100329.28;6254978;22;20008;-81
2021/04/30 09:58:23;;;;;;;63.95;30.05;;;9.60;99.90;;;11.28;73.45;100328.59;6246263;23;20011;-81
2021/04/30 10:00:57;;;;;;;63.80;30.02;;;9.70;99.90;;;11.00;73.93;100328.88;6246444;22;20004;-81
2021/04/30 10:03:28;;;;;;;60.95;29.85;;;9.60;99.90;;;10.62;75.35;100325.25;6246881;23;19996;-82
2021/04/30 10:06:20;;;;;;;62.72;28.83;;;9.50;99.90;;;10.92;74.88;100323.50;6272436;22;20157;-80
2021/04/30 10:09:09;;;;;;;62.88;27.73;;;9.50;99.90;;;11.00;74.03;100317.69;6272872;22;20345;-81
2021/04/30 10:11:37;;;;;;;58.38;29.15;;;9.50;99.90;;;11.23;73.06;100311.34;6246714;22;20008;-81
2021/04/30 10:14:08;;;;;;;57.28;26.92;;;9.70;99.90;;;11.41;72.37;100312.47;6246568;23;20011;-82
2021/04/30 10:16:37;;;;;;;60.47;28.85;;;9.80;99.90;;;11.33;72.55;100321.91;6247139;23;20004;-83
2021/04/30 10:19:06;;;;;;;54.92;27.27;;;9.90;99.90;;;11.50;71.09;100325.03;6247074;23;20050;-81
2021/04/30 10:21:42;;;;;;;59.80;28.73;;;9.90;99.90;;;11.28;71.87;100313.81;6247288;22;20034;-80